»·PEaware :: N2MZ KLGB-KRAL

N2MZ :: KLGB-KRAL

FLIGHT INFORMATION

Flight Status: Arrived
Operator: Privately registered:
United States
More flights under this callsign
Pilot: Mike Z. (25595)
Aircraft: CESSNA 172 SKYHAWK
(C172)
More flights by this aircraft type
Origin: KLGB Long Beach
United States
Destination: KRAL Riverside Mun
United States
More flights between these airports :: More routes between these airports
Route: SLI V8 PDZ
File this flight plan on PilotEdge
Remarks: TEC CSTP13
Altitude:
(Current/Filed)
5,000ft
Speed:
(Current/Filed)
115kts
Departed: 18-Oct-19 09:53 PM
Arrived: 18-Oct-19 10:26 PM
Distance/Time
Traveled:
2290nm/0:33
Distance/Time
To Go:
Arrived

Flight Plot

Page will automatically refresh every two minutes.


Map Options




Map Legend


Flown Route
Filed Route
Departure Airport
Arrival Airport
Navaid (VOR, NDB)
Fix

Horizontal Profiles

Position Reports

Time Latitude Longitude Heading Altitude Ground
Speed
18-Oct-19 21:37 33.812114 -118.150866 89 38ft 0kts
18-Oct-19 21:38 33.812114 -118.150866 89 38ft 0kts
18-Oct-19 21:39 33.812114 -118.150866 89 38ft 0kts
18-Oct-19 21:40 33.812114 -118.150866 89 38ft 0kts
18-Oct-19 21:41 33.812114 -118.150866 89 38ft 0kts
18-Oct-19 21:42 33.812114 -118.150866 89 38ft 0kts
18-Oct-19 21:43 33.812114 -118.150866 89 38ft 0kts
18-Oct-19 21:44 33.812114 -118.150866 89 38ft 0kts
18-Oct-19 21:44 33.812114 -118.150866 89 38ft 0kts
18-Oct-19 21:45 33.812913 -118.150380 17 37ft 10kts
18-Oct-19 21:47 33.813130 -118.148617 91 37ft 0kts
18-Oct-19 21:47 33.813130 -118.148617 91 37ft 0kts
18-Oct-19 21:48 33.813130 -118.148617 91 37ft 0kts
18-Oct-19 21:50 33.813130 -118.148617 91 37ft 0kts
18-Oct-19 21:50 33.813130 -118.148617 91 37ft 0kts
18-Oct-19 21:51 33.813130 -118.148612 91 37ft 2kts
18-Oct-19 21:52 33.814055 -118.161478 274 275ft 74kts
18-Oct-19 21:53 33.816337 -118.186994 231 998ft 80kts
18-Oct-19 21:54 33.796478 -118.201733 206 1712ft 81kts
18-Oct-19 21:55 33.775686 -118.213096 204 2361ft 84kts
18-Oct-19 21:56 33.754556 -118.225003 206 2982ft 84kts
18-Oct-19 21:57 33.747670 -118.208159 67 3548ft 83kts
18-Oct-19 21:58 33.756414 -118.182499 73 4144ft 79kts
18-Oct-19 21:59 33.761338 -118.155788 70 4682ft 80kts
18-Oct-19 22:00 33.769859 -118.127800 69 4983ft 103kts
18-Oct-19 22:01 33.779043 -118.092923 75 4986ft 114kts
18-Oct-19 22:02 33.786139 -118.055313 72 4984ft 116kts
18-Oct-19 22:03 33.795975 -118.018387 73 4984ft 116kts
18-Oct-19 22:04 33.805127 -117.981080 73 4984ft 116kts
18-Oct-19 22:05 33.814429 -117.943843 73 4984ft 116kts
18-Oct-19 22:06 33.823814 -117.906584 72 4984ft 116kts
18-Oct-19 22:10 33.885748 -117.794211 6 4984ft 116kts
18-Oct-19 22:11 33.917400 -117.786658 5 4982ft 116kts
18-Oct-19 22:12 33.941202 -117.763826 54 4772ft 123kts
18-Oct-19 22:13 33.963146 -117.731508 47 4276ft 125kts
18-Oct-19 22:14 33.986467 -117.700543 47 3776ft 123kts
18-Oct-19 22:15 33.995557 -117.667377 95 3324ft 101kts
18-Oct-19 22:16 33.991348 -117.640221 102 3298ft 73kts
18-Oct-19 22:17 33.985661 -117.616379 104 3298ft 73kts
18-Oct-19 22:18 33.980460 -117.590711 102 2869ft 78kts
18-Oct-19 22:19 33.976060 -117.567528 102 2516ft 71kts
18-Oct-19 22:20 33.971193 -117.542093 102 2248ft 70kts
18-Oct-19 22:21 33.967087 -117.520528 102 1918ft 68kts
18-Oct-19 22:22 33.962486 -117.496590 102 1525ft 73kts
18-Oct-19 22:23 33.957928 -117.473047 102 1118ft 71kts
18-Oct-19 22:24 33.953708 -117.450941 102 777ft 69kts
18-Oct-19 22:25 33.951514 -117.439998 140 801ft 8kts
18-Oct-19 22:26 33.950074 -117.442477 210 783ft 0kts
18-Oct-19 22:27 33.950074 -117.442477 210 783ft 0kts
18-Oct-19 22:28 33.950074 -117.442477 210 783ft 0kts
18-Oct-19 22:29 33.950074 -117.442477 210 783ft 0kts
18-Oct-19 22:30 33.950074 -117.442477 210 783ft 0kts
18-Oct-19 22:31 33.950074 -117.442477 210 783ft 0kts
18-Oct-19 22:32 33.950074 -117.442477 210 783ft 0kts
18-Oct-19 22:33 33.950074 -117.442477 210 783ft 0kts
18-Oct-19 22:34 33.950074 -117.442477 210 783ft 0kts
18-Oct-19 22:35 33.950074 -117.442477 210 783ft 0kts
18-Oct-19 22:36 42.074911 -70.218846 149 7ft 0kts
18-Oct-19 22:37 42.074911 -70.218846 149 7ft 0kts
18-Oct-19 22:38 42.074911 -70.218846 148 7ft 0kts
18-Oct-19 22:39 42.074911 -70.218846 148 7ft 0kts

Navigation Log

Ident Type
Flight plan parsing failed, navigation log unavailable